サンティアゴ の空港の天気 - METARとTAF

アルトゥーロ・メリノ・ベニテス国際空港(サンティアゴ) ( SCEL / SCL ) - チリ サンティアゴ
飛行場実況気象(Metar)
観測時間10/22 12:00 CLST (10/22 15:00 UTC)
風向・風速西南西 2m/s
視程10km以上
天気現象
なし
気温21℃
湿度46%
気圧1015hPa
METARSCEL 221500Z 24003KT 200V300 CAVOK 21/09 Q1015 NOSIG
過去の天気等 Google飛行場航空写真 Wunderground天気予報

過去48時間のMETAR

飛行場予報(TAF)
発表時間: 10/22 07:00 CLST (10/22 10:00 UTC)
予報対象時間: 22日9時 CLST ~ 23日9時 CLST
風向・風速南南東 2m/s
視程10km以上
なし
22日9時 CLST ~ 22日10時 CLST に一時的に
風向・風速不定 1m/s
視程7000m
なし
22日13時 CLST ~ 22日15時 CLST に徐々に
風向・風速南 4m/s
22日16時 CLST ~ 22日18時 CLST に徐々に
風向・風速南南西 7m/s
22日23時 CLST ~ 23日1時 CLST に徐々に
風向・風速南南東 3m/s
23日6時 CLST ~ 23日9時 CLST に一時的に
風向・風速不定 1m/s
視程7000m
なし
TAF SCEL 221000Z 2212/2312 16004KT CAVOK TX28/2219Z TN09/2311Z
TEMPO 2212/2213 VRB02KT 7000 NSC
BECMG 2216/2218 19008KT
BECMG 2219/2221 20013KT
BECMG 2302/2304 16005KT
TEMPO 2309/2312 VRB02KT 7000 NSC